createdAt,value
2019-02-17T00:00:31.414Z,0.00
2019-02-17T00:01:31.280Z,0.00
2019-02-17T00:02:31.152Z,0.00
2019-02-17T00:03:31.018Z,0.00
2019-02-17T00:04:30.889Z,0.00
2019-02-17T00:05:30.756Z,0.00
2019-02-17T00:06:30.624Z,0.00
2019-02-17T00:07:30.491Z,0.00
2019-02-17T00:08:30.359Z,0.00
2019-02-17T00:09:30.229Z,0.00
2019-02-17T00:10:30.098Z,0.00
2019-02-17T00:11:29.965Z,0.00
2019-02-17T00:12:29.833Z,0.00
2019-02-17T00:13:29.702Z,0.00
2019-02-17T00:14:29.572Z,0.00
2019-02-17T00:15:29.514Z,0.00
2019-02-17T00:16:29.308Z,0.00
2019-02-17T00:17:29.175Z,0.00
2019-02-17T00:18:29.044Z,0.00
2019-02-17T00:19:28.911Z,0.00
2019-02-17T00:20:28.780Z,0.00
2019-02-17T00:21:28.646Z,0.00
2019-02-17T00:22:28.527Z,0.00
2019-02-17T00:23:28.385Z,0.00
2019-02-17T00:24:28.256Z,0.00
2019-02-17T00:25:28.120Z,0.00
2019-02-17T00:26:27.989Z,0.00
2019-02-17T00:27:27.858Z,0.00
2019-02-17T00:28:27.723Z,0.00
2019-02-17T00:29:27.593Z,0.00
2019-02-17T00:30:27.464Z,0.00
2019-02-17T00:31:27.333Z,0.00
2019-02-17T00:32:27.203Z,0.00
2019-02-17T00:33:27.066Z,0.00
2019-02-17T00:34:26.934Z,0.00
2019-02-17T00:35:26.803Z,0.00
2019-02-17T00:36:26.671Z,0.00
2019-02-17T00:37:26.538Z,0.00
2019-02-17T00:38:26.408Z,0.00
2019-02-17T00:39:26.279Z,0.00
2019-02-17T00:40:26.143Z,0.00
2019-02-17T00:41:26.080Z,0.00
2019-02-17T00:42:25.882Z,0.00
2019-02-17T00:43:25.751Z,0.00
2019-02-17T00:44:25.617Z,0.00
2019-02-17T00:45:25.486Z,0.00
2019-02-17T00:46:25.354Z,0.00
2019-02-17T00:47:25.223Z,0.00
2019-02-17T00:48:25.089Z,0.00
2019-02-17T00:49:24.958Z,0.00
2019-02-17T00:50:24.824Z,0.00
2019-02-17T00:51:24.694Z,0.00
2019-02-17T00:52:24.564Z,0.00
2019-02-17T00:53:24.429Z,0.00
2019-02-17T00:54:24.299Z,0.00
2019-02-17T00:55:24.170Z,0.00
2019-02-17T00:56:24.033Z,0.00
2019-02-17T00:57:23.903Z,0.00
2019-02-17T00:58:23.771Z,0.00
2019-02-17T00:59:23.639Z,0.00
2019-02-17T01:00:23.505Z,0.00
2019-02-17T01:01:23.377Z,0.00
2019-02-17T01:02:23.246Z,0.00
2019-02-17T01:03:23.113Z,0.00
2019-02-17T01:04:22.982Z,0.00
2019-02-17T01:05:22.850Z,0.00
2019-02-17T01:06:22.718Z,0.00
2019-02-17T01:07:22.585Z,0.00
2019-02-17T01:08:22.454Z,0.00
2019-02-17T01:09:22.325Z,0.00
2019-02-17T01:10:22.189Z,0.00
2019-02-17T01:11:22.057Z,0.00
2019-02-17T01:12:21.926Z,0.00
2019-02-17T01:13:21.798Z,0.00
2019-02-17T01:14:21.663Z,0.00
2019-02-17T01:15:21.531Z,0.00
2019-02-17T01:16:21.397Z,0.00
2019-02-17T01:17:21.264Z,0.00
2019-02-17T01:18:21.133Z,0.00
2019-02-17T01:19:21.003Z,0.00
2019-02-17T01:20:20.871Z,0.00
2019-02-17T01:21:20.737Z,0.00
2019-02-17T01:22:20.606Z,0.00
2019-02-17T01:23:20.476Z,0.00
2019-02-17T01:24:20.341Z,0.00
2019-02-17T01:25:20.211Z,0.00
2019-02-17T01:26:20.079Z,0.00
2019-02-17T01:27:19.947Z,0.00
2019-02-17T01:28:19.813Z,0.00
2019-02-17T01:29:20.725Z,0.00
2019-02-17T01:30:19.558Z,0.00
2019-02-17T01:31:19.419Z,0.00
2019-02-17T01:32:19.285Z,0.00
2019-02-17T01:33:19.156Z,0.00
2019-02-17T01:34:19.022Z,0.00
2019-02-17T01:35:18.895Z,0.00
2019-02-17T01:36:18.759Z,0.00
2019-02-17T01:37:18.626Z,0.00
2019-02-17T01:38:18.493Z,0.00
2019-02-17T01:39:18.362Z,0.00
2019-02-17T01:40:18.232Z,0.00
2019-02-17T01:41:18.098Z,0.00
2019-02-17T01:42:17.966Z,0.00
2019-02-17T01:43:17.833Z,0.00
2019-02-17T01:44:17.702Z,0.00
2019-02-17T01:45:17.568Z,0.00
2019-02-17T01:46:17.438Z,0.00
2019-02-17T01:47:17.304Z,0.00
2019-02-17T01:48:17.173Z,0.00
2019-02-17T01:49:17.052Z,0.00
2019-02-17T01:50:16.907Z,0.00
2019-02-17T01:51:16.775Z,0.00
2019-02-17T01:52:16.643Z,0.00
2019-02-17T01:53:16.518Z,0.00
2019-02-17T01:54:16.379Z,0.00
2019-02-17T01:55:16.249Z,0.00
2019-02-17T01:56:16.113Z,0.00
2019-02-17T01:57:15.985Z,0.00
2019-02-17T01:58:15.851Z,0.00
2019-02-17T01:59:15.719Z,0.00
2019-02-17T02:00:15.589Z,0.00
2019-02-17T02:01:17.093Z,0.00
2019-02-17T02:02:15.325Z,0.00
2019-02-17T02:03:15.190Z,0.00
2019-02-17T02:04:15.060Z,0.00
2019-02-17T02:05:14.925Z,0.00
2019-02-17T02:06:14.793Z,0.00
2019-02-17T02:07:14.662Z,0.00
2019-02-17T02:08:14.528Z,0.00
2019-02-17T02:09:14.400Z,0.00
2019-02-17T02:10:14.267Z,0.00
2019-02-17T02:11:14.134Z,0.00
2019-02-17T02:12:14.002Z,0.00
2019-02-17T02:13:13.871Z,0.00
2019-02-17T02:14:13.736Z,0.00
2019-02-17T02:15:13.609Z,0.00
2019-02-17T02:16:13.474Z,0.00
2019-02-17T02:17:13.343Z,0.00
2019-02-17T02:18:13.209Z,0.00
2019-02-17T02:19:13.079Z,0.00
2019-02-17T02:20:12.943Z,0.00
2019-02-17T02:21:12.811Z,0.00
2019-02-17T02:22:12.681Z,0.00
2019-02-17T02:23:12.553Z,0.00
2019-02-17T02:24:12.426Z,0.00
2019-02-17T02:25:12.287Z,0.00
2019-02-17T02:26:12.152Z,0.00
2019-02-17T02:27:12.021Z,0.00
2019-02-17T02:28:11.889Z,0.00
2019-02-17T02:29:11.755Z,0.00
2019-02-17T02:30:11.628Z,0.00
2019-02-17T02:31:11.493Z,0.00
2019-02-17T02:32:11.361Z,0.00
2019-02-17T02:33:11.228Z,0.00
2019-02-17T02:34:11.096Z,0.00
2019-02-17T02:35:10.969Z,0.00
2019-02-17T02:36:10.830Z,0.00
2019-02-17T02:37:10.699Z,0.00
2019-02-17T02:38:10.569Z,0.00
2019-02-17T02:39:10.437Z,0.00
2019-02-17T02:40:10.317Z,0.00
2019-02-17T02:41:10.172Z,0.00
2019-02-17T02:42:10.060Z,0.00
2019-02-17T02:43:09.906Z,0.00
2019-02-17T02:44:09.777Z,0.00
2019-02-17T02:45:09.644Z,0.00
2019-02-17T02:46:09.512Z,0.00
2019-02-17T02:47:09.384Z,0.00
2019-02-17T02:48:09.247Z,0.00
2019-02-17T02:49:09.117Z,0.00
2019-02-17T02:50:08.986Z,0.00
2019-02-17T02:51:08.856Z,0.00
2019-02-17T02:52:08.719Z,0.00
2019-02-17T02:53:08.590Z,0.00
2019-02-17T02:54:08.458Z,0.00
2019-02-17T02:55:08.324Z,0.00
2019-02-17T02:56:08.191Z,0.00
2019-02-17T02:57:08.064Z,0.00
2019-02-17T02:58:07.929Z,0.00
2019-02-17T02:59:07.797Z,0.00
2019-02-17T03:00:07.664Z,0.00
2019-02-17T03:01:07.580Z,0.00
2019-02-17T03:02:07.399Z,0.00
2019-02-17T03:03:07.266Z,0.00
2019-02-17T03:04:07.137Z,0.00
2019-02-17T03:05:07.008Z,0.00
2019-02-17T03:06:06.873Z,0.00
2019-02-17T03:07:06.738Z,0.00
2019-02-17T03:08:06.606Z,0.00
2019-02-17T03:09:06.478Z,0.00
2019-02-17T03:10:06.344Z,0.00
2019-02-17T03:11:06.211Z,0.00
2019-02-17T03:12:06.085Z,0.00
2019-02-17T03:13:05.945Z,0.00
2019-02-17T03:14:05.817Z,0.00
2019-02-17T03:15:05.683Z,0.00
2019-02-17T03:16:05.569Z,0.00
2019-02-17T03:17:05.423Z,0.00
2019-02-17T03:18:05.284Z,0.00
2019-02-17T03:19:05.154Z,0.00
2019-02-17T03:20:05.023Z,0.00
2019-02-17T03:21:04.891Z,0.00
2019-02-17T03:22:04.756Z,0.00
2019-02-17T03:23:04.625Z,0.00
2019-02-17T03:24:04.494Z,0.00
2019-02-17T03:25:04.359Z,0.00
2019-02-17T03:26:04.227Z,0.00
2019-02-17T03:27:04.098Z,0.00
2019-02-17T03:28:03.962Z,0.00
2019-02-17T03:29:03.830Z,0.00
2019-02-17T03:30:05.386Z,0.00
2019-02-17T03:31:03.578Z,0.00
2019-02-17T03:32:03.438Z,0.00
2019-02-17T03:33:03.305Z,0.00
2019-02-17T03:34:03.177Z,0.00
2019-02-17T03:35:03.038Z,0.00
2019-02-17T03:36:02.924Z,0.00
2019-02-17T03:37:02.779Z,0.00
2019-02-17T03:38:02.644Z,0.00
2019-02-17T03:39:02.515Z,0.00
2019-02-17T03:40:02.378Z,0.00
2019-02-17T03:41:02.255Z,0.00
2019-02-17T03:42:02.116Z,0.00
2019-02-17T03:43:01.983Z,0.00
2019-02-17T03:44:01.849Z,0.00
2019-02-17T03:45:01.724Z,0.00
2019-02-17T03:46:01.585Z,0.00
2019-02-17T03:47:01.453Z,0.00
2019-02-17T03:48:01.330Z,0.00
2019-02-17T03:49:01.189Z,0.00
2019-02-17T03:50:01.057Z,0.00
2019-02-17T03:51:00.924Z,0.00
2019-02-17T03:52:00.792Z,0.00
2019-02-17T03:53:00.660Z,0.00
2019-02-17T03:54:00.528Z,0.00
2019-02-17T03:55:00.427Z,0.00
2019-02-17T03:56:00.263Z,0.00
2019-02-17T03:57:00.134Z,0.00
2019-02-17T03:58:00.000Z,0.00
2019-02-17T03:58:59.865Z,0.00
2019-02-17T03:59:59.734Z,0.00
2019-02-17T04:00:59.600Z,0.00
2019-02-17T04:01:59.470Z,0.00
2019-02-17T04:02:59.339Z,0.00
2019-02-17T04:03:59.205Z,0.00
2019-02-17T04:04:59.077Z,0.00
2019-02-17T04:05:58.941Z,0.00
2019-02-17T04:06:58.809Z,0.00
2019-02-17T04:07:58.677Z,0.00
2019-02-17T04:08:58.545Z,0.00
2019-02-17T04:09:58.415Z,0.00
2019-02-17T04:10:58.283Z,0.00
2019-02-17T04:11:58.149Z,0.00
2019-02-17T04:12:58.015Z,0.00
2019-02-17T04:13:57.885Z,0.00
2019-02-17T04:14:57.755Z,0.00
2019-02-17T04:15:57.620Z,0.00
2019-02-17T04:16:57.489Z,0.00
2019-02-17T04:17:57.359Z,0.00
2019-02-17T04:18:57.244Z,0.00
2019-02-17T04:19:57.090Z,0.00
2019-02-17T04:20:56.961Z,0.00
2019-02-17T04:21:56.830Z,0.00
2019-02-17T04:22:56.696Z,0.00
2019-02-17T04:23:56.563Z,0.00
2019-02-17T04:24:56.430Z,0.00
2019-02-17T04:25:56.296Z,0.00
2019-02-17T04:26:56.166Z,0.00
2019-02-17T04:27:56.037Z,0.00
2019-02-17T04:28:55.902Z,0.00
2019-02-17T04:29:55.768Z,0.00
2019-02-17T04:30:55.638Z,0.00
2019-02-17T04:31:55.503Z,0.00
2019-02-17T04:32:55.370Z,0.00
2019-02-17T04:33:55.238Z,0.00
2019-02-17T04:34:55.107Z,0.00
2019-02-17T04:35:54.974Z,0.00
2019-02-17T04:36:54.847Z,0.00
2019-02-17T04:37:54.711Z,0.00
2019-02-17T04:38:54.580Z,0.00
2019-02-17T04:39:54.444Z,0.00
2019-02-17T04:40:54.315Z,0.00
2019-02-17T04:41:54.190Z,0.00
2019-02-17T04:42:54.048Z,0.00
2019-02-17T04:43:53.917Z,0.00
2019-02-17T04:44:53.786Z,0.00
2019-02-17T04:45:53.654Z,0.00
2019-02-17T04:46:53.523Z,0.00
2019-02-17T04:47:53.392Z,0.00
2019-02-17T04:48:53.255Z,0.00
2019-02-17T04:49:53.129Z,0.00
2019-02-17T04:50:52.992Z,0.00
2019-02-17T04:51:52.858Z,0.00
2019-02-17T04:52:52.731Z,0.00
2019-02-17T04:53:52.595Z,0.00
2019-02-17T04:54:52.462Z,0.00
2019-02-17T04:55:52.331Z,0.00
2019-02-17T04:56:52.199Z,0.00
2019-02-17T04:57:52.065Z,0.00
2019-02-17T04:58:51.936Z,0.00
2019-02-17T04:59:51.812Z,0.00
2019-02-17T05:00:51.669Z,0.00
2019-02-17T05:01:51.555Z,0.00
2019-02-17T05:02:51.407Z,0.00
2019-02-17T05:03:51.272Z,0.00
2019-02-17T05:04:51.140Z,0.00
2019-02-17T05:05:51.030Z,0.00
2019-02-17T05:06:50.877Z,0.00
2019-02-17T05:07:50.743Z,0.00
2019-02-17T05:08:50.613Z,0.00
2019-02-17T05:09:50.479Z,0.00
2019-02-17T05:10:50.350Z,0.00
2019-02-17T05:11:50.215Z,0.00
2019-02-17T05:12:50.089Z,0.00
2019-02-17T05:13:50.025Z,0.00
2019-02-17T05:14:49.820Z,0.00
2019-02-17T05:15:49.687Z,0.00
2019-02-17T05:16:49.552Z,0.00
2019-02-17T05:17:49.424Z,0.00
2019-02-17T05:18:49.296Z,0.00
2019-02-17T05:19:49.157Z,0.00
2019-02-17T05:20:49.026Z,0.00
2019-02-17T05:21:48.896Z,0.00
2019-02-17T05:22:48.761Z,0.00
2019-02-17T05:23:48.627Z,0.00
2019-02-17T05:24:48.498Z,0.00
2019-02-17T05:25:48.369Z,0.00
2019-02-17T05:26:48.233Z,0.00
2019-02-17T05:27:48.099Z,0.00
2019-02-17T05:28:47.968Z,0.00
2019-02-17T05:29:47.833Z,0.00
2019-02-17T05:30:52.950Z,0.00
2019-02-17T05:31:47.571Z,0.00
2019-02-17T05:32:47.438Z,0.00
2019-02-17T05:33:47.308Z,0.00
2019-02-17T05:34:47.172Z,0.00
2019-02-17T05:35:47.041Z,0.00
2019-02-17T05:36:46.908Z,0.00
2019-02-17T05:37:46.786Z,0.00
2019-02-17T05:38:46.643Z,0.00
2019-02-17T05:39:46.509Z,0.00
2019-02-17T05:40:46.379Z,0.00
2019-02-17T05:41:46.246Z,0.00
2019-02-17T05:42:46.114Z,0.00
2019-02-17T05:43:45.980Z,0.00
2019-02-17T05:44:45.916Z,0.00
2019-02-17T05:45:45.722Z,0.00
2019-02-17T05:46:45.586Z,0.00
2019-02-17T05:47:45.453Z,0.00
2019-02-17T05:48:45.321Z,0.00
2019-02-17T05:49:45.188Z,0.00
2019-02-17T05:50:45.056Z,0.00
2019-02-17T05:51:44.923Z,0.00
2019-02-17T05:52:44.794Z,0.00
2019-02-17T05:53:44.660Z,0.00
2019-02-17T05:54:44.543Z,0.00
2019-02-17T05:55:44.407Z,0.00
2019-02-17T05:56:44.262Z,0.00
2019-02-17T05:57:44.130Z,4.00
2019-02-17T05:58:43.999Z,0.00
2019-02-17T05:59:43.867Z,4.00
2019-02-17T06:00:43.745Z,4.00
2019-02-17T06:01:43.600Z,4.00
2019-02-17T06:02:43.469Z,4.00
2019-02-17T06:03:43.338Z,4.00
2019-02-17T06:04:43.202Z,4.00
2019-02-17T06:05:43.114Z,8.00
2019-02-17T06:06:42.944Z,8.00
2019-02-17T06:07:42.808Z,12.00
2019-02-17T06:08:43.148Z,12.00
2019-02-17T06:09:42.543Z,12.00
2019-02-17T06:10:42.409Z,20.00
2019-02-17T06:11:42.301Z,20.00
2019-02-17T06:12:42.145Z,28.00
2019-02-17T06:13:42.023Z,32.00
2019-02-17T06:14:41.883Z,36.00
2019-02-17T06:15:41.750Z,36.00
2019-02-17T06:16:41.616Z,44.00
2019-02-17T06:17:41.482Z,48.00
2019-02-17T06:18:41.351Z,56.00
2019-02-17T06:19:41.219Z,64.00
2019-02-17T06:20:41.087Z,68.00
2019-02-17T06:21:40.955Z,76.00
2019-02-17T06:22:40.824Z,84.00
2019-02-17T06:23:40.708Z,96.00
2019-02-17T06:24:40.555Z,100.00
2019-02-17T06:25:40.457Z,112.00
2019-02-17T06:26:40.293Z,120.00
2019-02-17T06:27:40.158Z,132.00
2019-02-17T06:28:40.029Z,140.00
2019-02-17T06:29:39.906Z,152.00
2019-02-17T06:30:39.764Z,160.00
2019-02-17T06:31:39.631Z,172.00
2019-02-17T06:32:39.498Z,184.00
2019-02-17T06:33:39.368Z,192.00
2019-02-17T06:34:39.280Z,200.00
2019-02-17T06:35:39.100Z,212.00
2019-02-17T06:36:40.853Z,224.00
2019-02-17T06:37:38.837Z,232.00
2019-02-17T06:38:38.705Z,244.00
2019-02-17T06:39:38.572Z,252.00
2019-02-17T06:40:38.440Z,264.00
2019-02-17T06:41:38.339Z,272.00
2019-02-17T06:42:38.175Z,284.00
2019-02-17T06:43:38.043Z,292.00
2019-02-17T06:44:37.910Z,300.00
2019-02-17T06:45:37.780Z,312.00
2019-02-17T06:46:37.646Z,320.00
2019-02-17T06:47:37.521Z,328.00
2019-02-17T06:48:37.379Z,340.00
2019-02-17T06:49:37.248Z,348.00
2019-02-17T06:50:37.128Z,356.00
2019-02-17T06:51:36.982Z,364.00
2019-02-17T06:52:36.867Z,372.00
2019-02-17T06:53:36.723Z,380.00
2019-02-17T06:54:36.585Z,388.00
2019-02-17T06:55:36.470Z,392.00
2019-02-17T06:56:36.326Z,404.00
2019-02-17T06:57:36.189Z,408.00
2019-02-17T06:58:36.059Z,416.00
2019-02-17T06:59:35.923Z,424.00
2019-02-17T07:00:35.792Z,428.00
2019-02-17T07:01:35.661Z,436.00
2019-02-17T07:02:35.534Z,444.00
2019-02-17T07:03:35.477Z,452.00
2019-02-17T07:04:35.269Z,456.00
2019-02-17T07:05:35.161Z,464.00
2019-02-17T07:06:35.000Z,468.00
2019-02-17T07:07:34.869Z,476.00
2019-02-17T07:08:34.740Z,484.00
2019-02-17T07:09:34.602Z,488.00
2019-02-17T07:10:34.470Z,492.00
2019-02-17T07:11:34.350Z,496.00
2019-02-17T07:12:34.206Z,504.00
2019-02-17T07:13:34.074Z,508.00
2019-02-17T07:14:33.940Z,512.00
2019-02-17T07:15:33.811Z,520.00
2019-02-17T07:16:33.678Z,524.00
2019-02-17T07:17:33.566Z,528.00
2019-02-17T07:18:33.412Z,532.00
2019-02-17T07:19:33.279Z,540.00
2019-02-17T07:20:33.147Z,548.00
2019-02-17T07:21:33.015Z,548.00
2019-02-17T07:22:32.884Z,556.00
2019-02-17T07:23:32.753Z,560.00
2019-02-17T07:24:32.632Z,564.00
2019-02-17T07:25:32.498Z,568.00
2019-02-17T07:26:32.356Z,572.00
2019-02-17T07:27:32.225Z,576.00
2019-02-17T07:28:32.091Z,580.00
2019-02-17T07:29:31.972Z,584.00
2019-02-17T07:30:31.827Z,592.00
2019-02-17T07:31:35.041Z,596.00
2019-02-17T07:32:31.564Z,600.00
2019-02-17T07:33:31.431Z,604.00
2019-02-17T07:34:31.299Z,604.00
2019-02-17T07:35:31.166Z,608.00
2019-02-17T07:36:31.040Z,616.00
2019-02-17T07:37:33.483Z,620.00
2019-02-17T07:38:30.775Z,620.00
2019-02-17T07:39:30.637Z,624.00
2019-02-17T07:40:30.505Z,628.00
2019-02-17T07:41:30.370Z,636.00
2019-02-17T07:42:30.239Z,636.00
2019-02-17T07:43:30.108Z,640.00
2019-02-17T07:44:29.975Z,644.00
2019-02-17T07:45:29.843Z,644.00
2019-02-17T07:46:29.713Z,648.00
2019-02-17T07:47:29.578Z,656.00
2019-02-17T07:48:29.462Z,656.00
2019-02-17T07:49:29.314Z,660.00
2019-02-17T07:50:29.185Z,664.00
2019-02-17T07:51:29.049Z,664.00
2019-02-17T07:52:28.917Z,672.00
2019-02-17T07:53:28.788Z,676.00
2019-02-17T07:54:28.693Z,676.00
2019-02-17T07:55:28.524Z,680.00
2019-02-17T07:56:28.397Z,684.00
2019-02-17T07:57:28.263Z,688.00
2019-02-17T07:58:28.130Z,692.00
2019-02-17T07:59:27.995Z,696.00
2019-02-17T08:00:27.863Z,700.00
2019-02-17T08:01:27.733Z,708.00
2019-02-17T08:02:27.600Z,720.00
2019-02-17T08:03:27.489Z,732.00
2019-02-17T08:04:27.338Z,748.00
2019-02-17T08:05:27.204Z,776.00
2019-02-17T08:06:27.075Z,816.00
2019-02-17T08:07:26.941Z,864.00
2019-02-17T08:08:26.810Z,912.00
2019-02-17T08:09:26.677Z,996.00
2019-02-17T08:10:26.739Z,1208.00
2019-02-17T08:11:26.427Z,1696.00
2019-02-17T08:12:26.283Z,2228.00
2019-02-17T08:13:26.169Z,2464.00
2019-02-17T08:14:26.019Z,2480.00
2019-02-17T08:15:25.888Z,2492.00
2019-02-17T08:16:25.761Z,2508.00
2019-02-17T08:17:25.628Z,2524.00
2019-02-17T08:18:25.497Z,2540.00
2019-02-17T08:19:25.467Z,2548.00
2019-02-17T08:20:25.235Z,2568.00
2019-02-17T08:21:25.106Z,2576.00
2019-02-17T08:22:24.980Z,2588.00
2019-02-17T08:23:24.848Z,2600.00
2019-02-17T08:24:24.721Z,2612.00
2019-02-17T08:25:24.588Z,2620.00
2019-02-17T08:26:24.466Z,2628.00
2019-02-17T08:27:24.367Z,2644.00
2019-02-17T08:28:24.207Z,2656.00
2019-02-17T08:29:24.075Z,2668.00
2019-02-17T08:30:23.947Z,2676.00
2019-02-17T08:31:23.815Z,2684.00
2019-02-17T08:32:23.704Z,2696.00
2019-02-17T08:33:23.574Z,2704.00
2019-02-17T08:34:23.435Z,2712.00
2019-02-17T08:35:23.311Z,2720.00
2019-02-17T08:36:23.182Z,2728.00
2019-02-17T08:37:23.164Z,2732.00
2019-02-17T08:38:22.927Z,2740.00
2019-02-17T08:39:22.803Z,2752.00
2019-02-17T08:40:22.679Z,2760.00
2019-02-17T08:41:22.546Z,2772.00
2019-02-17T08:42:22.423Z,2780.00
2019-02-17T08:43:22.293Z,2788.00
2019-02-17T08:44:22.170Z,2796.00
2019-02-17T08:45:22.044Z,2804.00
2019-02-17T08:46:21.949Z,2808.00
2019-02-17T08:47:21.793Z,2824.00
2019-02-17T08:48:21.668Z,2840.00
2019-02-17T08:49:21.548Z,2848.00
2019-02-17T08:50:21.416Z,2868.00
2019-02-17T08:51:21.290Z,2876.00
2019-02-17T08:52:21.166Z,2896.00
2019-02-17T08:53:21.040Z,2900.00
2019-02-17T08:54:20.915Z,2924.00
2019-02-17T08:55:20.803Z,2936.00
2019-02-17T08:56:20.663Z,2948.00
2019-02-17T08:57:20.540Z,2964.00
2019-02-17T08:58:20.418Z,2984.00
2019-02-17T08:59:20.291Z,3008.00
2019-02-17T09:00:20.163Z,3028.00
2019-02-17T09:01:20.086Z,3056.00
2019-02-17T09:02:19.914Z,3080.00
2019-02-17T09:03:19.789Z,3116.00
2019-02-17T09:04:19.662Z,3148.00
2019-02-17T09:05:19.540Z,3180.00
2019-02-17T09:06:19.415Z,3216.00
2019-02-17T09:07:19.290Z,3248.00
2019-02-17T09:08:19.166Z,3276.00
2019-02-17T09:09:19.229Z,3312.00
2019-02-17T09:10:18.916Z,3340.00
2019-02-17T09:11:18.793Z,3368.00
2019-02-17T09:12:18.672Z,3392.00
2019-02-17T09:13:18.690Z,3420.00
2019-02-17T09:14:18.422Z,2628.00
2019-02-17T09:15:18.298Z,2644.00
2019-02-17T09:16:18.180Z,2660.00
2019-02-17T09:17:18.113Z,2668.00
2019-02-17T09:18:17.957Z,2680.00
2019-02-17T09:19:17.806Z,2692.00
2019-02-17T09:20:17.681Z,2700.00
2019-02-17T09:21:17.559Z,2704.00
2019-02-17T09:22:17.470Z,2708.00
2019-02-17T09:23:17.316Z,2720.00
2019-02-17T09:24:17.192Z,2720.00
2019-02-17T09:25:17.073Z,2728.00
2019-02-17T09:26:16.952Z,2732.00
2019-02-17T09:27:16.824Z,2732.00
2019-02-17T09:28:16.704Z,2736.00
2019-02-17T09:29:16.581Z,2740.00
2019-02-17T09:30:16.468Z,2744.00
2019-02-17T09:31:16.345Z,2744.00
2019-02-17T09:32:16.805Z,2744.00
2019-02-17T09:33:16.126Z,2752.00
2019-02-17T09:34:15.970Z,2748.00
2019-02-17T09:35:15.928Z,2748.00
2019-02-17T09:36:15.737Z,2744.00
2019-02-17T09:37:15.605Z,2744.00
2019-02-17T09:38:17.132Z,2748.00
2019-02-17T09:39:15.359Z,2736.00
2019-02-17T09:40:15.240Z,2736.00
2019-02-17T09:41:15.119Z,2728.00
2019-02-17T09:42:14.998Z,2720.00
2019-02-17T09:43:14.883Z,2712.00
2019-02-17T09:44:14.753Z,2708.00
2019-02-17T09:45:14.688Z,2688.00
2019-02-17T09:46:14.512Z,2672.00
2019-02-17T09:47:14.386Z,2648.00
2019-02-17T09:48:14.265Z,2628.00
2019-02-17T09:49:14.143Z,2616.00
2019-02-17T09:50:14.022Z,2612.00
2019-02-17T09:51:16.628Z,2612.00
2019-02-17T09:52:13.894Z,2620.00
2019-02-17T09:53:13.656Z,2620.00
2019-02-17T09:54:13.534Z,2640.00
2019-02-17T09:55:13.412Z,2664.00
2019-02-17T09:56:13.288Z,2680.00
2019-02-17T09:57:13.512Z,2672.00
2019-02-17T09:58:13.045Z,2724.00
2019-02-17T09:59:12.923Z,2816.00
2019-02-17T10:00:12.802Z,2852.00
2019-02-17T10:01:12.679Z,2880.00
2019-02-17T10:02:12.559Z,2908.00
2019-02-17T10:03:12.432Z,2932.00
2019-02-17T10:04:12.313Z,2960.00
2019-02-17T10:05:12.187Z,2988.00
2019-02-17T10:06:12.074Z,3008.00
2019-02-17T10:07:11.939Z,3020.00
2019-02-17T10:08:11.818Z,3036.00
2019-02-17T10:09:11.730Z,3056.00
2019-02-17T10:10:11.782Z,3068.00
2019-02-17T10:11:11.450Z,3084.00
2019-02-17T10:12:11.335Z,3104.00
2019-02-17T10:13:11.212Z,3112.00
2019-02-17T10:14:11.086Z,3124.00
2019-02-17T10:15:10.961Z,3136.00
2019-02-17T10:16:10.857Z,3148.00
2019-02-17T10:17:10.716Z,3160.00
2019-02-17T10:18:10.592Z,3164.00
2019-02-17T10:19:10.475Z,3176.00
2019-02-17T10:20:10.348Z,3196.00
2019-02-17T10:21:10.226Z,3220.00
2019-02-17T10:22:10.105Z,3244.00
2019-02-17T10:23:09.981Z,3260.00
2019-02-17T10:24:09.858Z,3280.00
2019-02-17T10:25:09.735Z,3304.00
2019-02-17T10:26:09.615Z,3340.00
2019-02-17T10:27:09.490Z,3388.00
2019-02-17T10:28:09.375Z,3428.00
2019-02-17T10:29:09.267Z,3448.00
2019-02-17T10:30:09.128Z,3464.00
2019-02-17T10:31:09.000Z,3480.00
2019-02-17T10:32:08.879Z,3492.00
2019-02-17T10:33:08.756Z,3500.00
2019-02-17T10:34:08.633Z,3516.00
2019-02-17T10:35:08.510Z,3528.00
2019-02-17T10:36:08.390Z,3540.00
2019-02-17T10:37:11.141Z,3544.00
2019-02-17T10:38:08.147Z,3560.00
2019-02-17T10:39:08.037Z,3564.00
2019-02-17T10:40:07.909Z,3568.00
2019-02-17T10:41:07.781Z,3568.00
2019-02-17T10:42:07.662Z,3576.00
2019-02-17T10:43:07.574Z,3576.00
2019-02-17T10:44:07.416Z,3576.00
2019-02-17T10:45:07.296Z,3576.00
2019-02-17T10:46:07.174Z,3572.00
2019-02-17T10:47:07.048Z,3572.00
2019-02-17T10:48:06.959Z,3564.00
2019-02-17T10:49:06.851Z,3560.00
2019-02-17T10:50:06.704Z,3552.00
2019-02-17T10:51:06.566Z,3548.00
2019-02-17T10:52:06.441Z,3528.00
2019-02-17T10:53:06.371Z,3520.00
2019-02-17T10:54:06.199Z,3524.00
2019-02-17T10:55:06.080Z,3520.00
2019-02-17T10:56:05.969Z,3512.00
2019-02-17T10:57:05.838Z,3500.00
2019-02-17T10:58:05.747Z,3472.00
2019-02-17T10:59:05.599Z,3440.00
2019-02-17T11:00:07.228Z,3408.00
2019-02-17T11:01:06.166Z,3408.00
2019-02-17T11:02:06.305Z,3424.00
2019-02-17T11:03:05.217Z,3444.00
2019-02-17T11:04:12.130Z,3460.00
2019-02-17T11:05:58.959Z,3472.00
2019-02-17T11:06:59.969Z,3484.00
2019-02-17T11:07:58.258Z,3488.00
2019-02-17T11:08:58.135Z,3472.00
2019-02-17T11:09:58.089Z,3448.00
2019-02-17T11:10:57.893Z,3436.00
2019-02-17T11:11:57.790Z,3444.00
2019-02-17T11:12:57.650Z,3440.00
2019-02-17T11:13:57.537Z,3444.00
2019-02-17T11:14:57.409Z,3436.00
2019-02-17T11:15:57.295Z,3420.00
2019-02-17T11:16:57.209Z,3408.00
2019-02-17T11:17:57.394Z,3396.00
2019-02-17T11:18:58.429Z,3392.00
2019-02-17T11:19:59.128Z,3372.00
2019-02-17T11:20:56.841Z,3348.00
2019-02-17T11:22:11.389Z,3300.00
2019-02-17T11:22:56.443Z,3276.00
2019-02-17T11:23:56.343Z,3280.00
2019-02-17T11:24:57.745Z,3292.00
2019-02-17T11:25:56.087Z,3312.00
2019-02-17T11:26:55.961Z,3308.00
2019-02-17T11:27:55.841Z,3296.00
2019-02-17T11:28:55.716Z,3312.00
2019-02-17T11:29:55.598Z,3320.00
2019-02-17T11:30:55.541Z,3320.00
2019-02-17T11:31:55.356Z,3280.00
2019-02-17T11:32:57.875Z,3216.00
2019-02-17T11:33:55.111Z,3144.00
2019-02-17T11:34:54.990Z,3092.00
2019-02-17T11:35:54.871Z,3080.00
2019-02-17T11:36:54.749Z,3092.00
2019-02-17T11:37:54.629Z,3112.00
2019-02-17T11:38:54.516Z,3116.00
2019-02-17T11:39:54.387Z,3112.00
2019-02-17T11:40:54.326Z,3104.00
2019-02-17T11:41:54.143Z,3088.00
2019-02-17T11:42:54.033Z,3072.00
2019-02-17T11:43:53.903Z,3068.00
2019-02-17T11:44:53.966Z,3084.00
2019-02-17T11:45:53.662Z,3088.00
2019-02-17T11:46:53.546Z,3100.00
2019-02-17T11:47:53.424Z,3100.00
2019-02-17T11:48:53.298Z,3092.00
2019-02-17T11:49:53.185Z,3080.00
2019-02-17T11:50:53.061Z,3088.00
2019-02-17T11:51:52.942Z,3108.00
2019-02-17T11:52:52.822Z,3132.00
2019-02-17T11:53:52.704Z,3136.00
2019-02-17T11:54:52.770Z,3140.00
2019-02-17T11:55:52.460Z,3160.00
2019-02-17T11:56:52.338Z,3156.00
2019-02-17T11:57:52.223Z,3140.00
2019-02-17T11:58:52.099Z,3116.00
2019-02-17T11:59:51.980Z,3104.00
2019-02-17T12:00:51.860Z,3104.00
2019-02-17T12:01:51.743Z,3104.00
2019-02-17T12:02:51.620Z,3112.00
2019-02-17T12:03:51.496Z,3116.00
2019-02-17T12:04:51.373Z,3116.00
2019-02-17T12:05:51.298Z,3112.00
2019-02-17T12:06:51.133Z,3124.00
2019-02-17T12:07:51.017Z,3116.00
2019-02-17T12:08:50.895Z,3104.00
2019-02-17T12:09:51.001Z,3088.00
2019-02-17T12:10:50.649Z,3088.00
2019-02-17T12:11:50.532Z,3092.00
2019-02-17T12:12:50.466Z,3080.00
2019-02-17T12:13:50.289Z,3060.00
2019-02-17T12:14:50.167Z,3036.00
2019-02-17T12:15:50.059Z,3020.00
2019-02-17T12:16:49.926Z,3012.00
2019-02-17T12:17:49.809Z,3008.00
2019-02-17T12:18:49.685Z,3004.00
2019-02-17T12:19:49.565Z,3012.00
2019-02-17T12:20:49.516Z,3020.00
2019-02-17T12:21:49.325Z,3048.00
2019-02-17T12:22:49.204Z,3060.00
2019-02-17T12:23:49.086Z,3080.00
2019-02-17T12:24:48.964Z,3092.00
2019-02-17T12:25:48.842Z,3080.00
2019-02-17T12:26:49.777Z,3048.00
2019-02-17T12:27:48.600Z,3008.00
2019-02-17T12:28:48.490Z,2984.00
2019-02-17T12:29:48.369Z,2976.00
2019-02-17T12:30:48.242Z,2980.00
2019-02-17T12:31:48.117Z,2996.00
2019-02-17T12:32:48.006Z,3012.00
2019-02-17T12:33:48.105Z,3028.00
2019-02-17T12:34:47.757Z,3048.00
2019-02-17T12:35:47.639Z,3076.00
2019-02-17T12:36:47.516Z,3080.00
2019-02-17T12:37:47.561Z,3064.00
2019-02-17T12:38:47.276Z,3052.00
2019-02-17T12:39:47.158Z,3052.00
2019-02-17T12:40:47.035Z,3044.00
2019-02-17T12:41:46.986Z,3036.00
2019-02-17T12:42:47.025Z,3040.00